Terminal Aerodrome Forecast
Issued by NWS North Platte, NE

Home | Current Version | Previous Version | Text Only | Print | Product List | Glossary On
Versions: 1 2 3 4 5 6 7 8 9 10 11 12 13 14
000
FTUS43 KLBF 011100
TAFLBF
TAF
KLBF 011132Z 0112/0212 VRB04KT P6SM FEW150
     FM011900 15007KT P6SM FEW080
     FM020300 VRB05KT P6SM SCT120=

USA.gov is the U.S. government's official web portal to all federal, state and local government web resources and services.